createdAt,value
2019-03-30T00:01:53.504Z,13.900000
2019-03-30T00:04:23.889Z,17.000000
2019-03-30T00:06:54.339Z,17.000000
2019-03-30T00:09:24.660Z,17.500000
2019-03-30T00:11:57.742Z,17.500000
2019-03-30T00:14:28.492Z,16.800000
2019-03-30T00:16:58.840Z,16.800000
2019-03-30T00:19:35.197Z,12.700000
2019-03-30T00:22:05.684Z,12.700000
2019-03-30T00:24:36.082Z,14.300000
2019-03-30T00:27:06.404Z,14.300000
2019-03-30T00:29:36.718Z,14.100000
2019-03-30T00:32:07.115Z,14.100000
2019-03-30T00:34:37.506Z,11.400000
2019-03-30T00:37:07.871Z,11.400000
2019-03-30T00:39:38.187Z,12.400000
2019-03-30T00:42:08.493Z,12.400000
2019-03-30T00:44:38.797Z,14.500000
2019-03-30T00:47:09.218Z,14.500000
2019-03-30T00:49:48.939Z,15.500000
2019-03-30T00:52:20.496Z,15.500000
2019-03-30T00:54:55.861Z,13.400000
2019-03-30T00:57:26.163Z,13.400000
2019-03-30T01:00:01.498Z,10.800000
2019-03-30T01:02:31.761Z,10.800000
2019-03-30T01:05:02.070Z,13.100000
2019-03-30T01:07:32.369Z,15.200000
2019-03-30T01:10:02.692Z,15.200000
2019-03-30T01:12:33.101Z,12.700000
2019-03-30T01:15:03.522Z,12.700000
2019-03-30T01:17:33.896Z,12.600000
2019-03-30T01:20:04.215Z,12.600000
2019-03-30T01:22:34.634Z,13.400000
2019-03-30T01:25:04.937Z,13.400000
2019-03-30T01:27:35.365Z,14.000000
2019-03-30T01:30:05.774Z,14.000000
2019-03-30T01:32:36.173Z,12.200000
2019-03-30T01:35:06.554Z,12.200000
2019-03-30T01:37:37.040Z,11.900000
2019-03-30T01:40:07.388Z,11.900000
2019-03-30T01:42:37.814Z,12.100000
2019-03-30T01:45:08.225Z,12.100000
2019-03-30T01:47:38.540Z,12.000000
2019-03-30T01:50:17.214Z,12.000000
2019-03-30T01:52:48.458Z,11.900000
2019-03-30T01:55:18.774Z,11.900000
2019-03-30T01:57:49.181Z,15.200000
2019-03-30T02:00:19.464Z,15.200000
2019-03-30T02:02:49.763Z,13.300000
2019-03-30T02:05:20.070Z,13.300000
2019-03-30T02:07:50.274Z,13.700000
2019-03-30T02:10:20.580Z,13.700000
2019-03-30T02:12:50.872Z,13.100000
2019-03-30T02:15:21.185Z,13.100000
2019-03-30T02:17:51.488Z,16.300000
2019-03-30T02:20:30.664Z,16.300000
2019-03-30T02:23:01.767Z,16.000000
2019-03-30T02:25:32.169Z,16.000000
2019-03-30T02:28:02.460Z,16.900000
2019-03-30T02:30:32.676Z,16.900000
2019-03-30T02:33:02.996Z,16.000000
2019-03-30T02:35:33.278Z,16.000000
2019-03-30T02:38:03.700Z,14.200000
2019-03-30T02:40:33.974Z,14.200000
2019-03-30T02:43:04.269Z,13.500000
2019-03-30T02:45:34.576Z,13.500000
2019-03-30T02:48:04.899Z,14.200000
2019-03-30T02:50:48.399Z,14.200000
2019-03-30T02:53:20.091Z,14.100000
2019-03-30T02:55:50.373Z,14.100000
2019-03-30T02:58:20.679Z,11.500000
2019-03-30T03:00:51.075Z,11.500000
2019-03-30T03:03:21.392Z,11.800000
2019-03-30T03:05:51.725Z,11.800000
2019-03-30T03:08:27.104Z,13.500000
2019-03-30T03:10:57.446Z,13.500000
2019-03-30T03:13:32.826Z,14.200000
2019-03-30T03:16:08.151Z,14.200000
2019-03-30T03:18:38.494Z,12.600000
2019-03-30T03:21:09.135Z,12.600000
2019-03-30T03:23:39.661Z,12.600000
2019-03-30T03:26:10.085Z,12.600000
2019-03-30T03:28:40.469Z,12.100000
2019-03-30T03:31:15.917Z,12.100000
2019-03-30T03:33:46.337Z,17.400000
2019-03-30T03:36:16.659Z,17.400000
2019-03-30T03:38:47.044Z,18.700000
2019-03-30T03:41:17.424Z,18.700000
2019-03-30T03:43:47.784Z,16.800000
2019-03-30T03:46:18.172Z,16.800000
2019-03-30T03:48:48.559Z,13.700000
2019-03-30T03:51:26.025Z,13.700000
2019-03-30T03:53:57.003Z,13.700000
2019-03-30T03:56:27.579Z,13.700000
2019-03-30T03:58:57.929Z,13.200000
2019-03-30T04:01:28.428Z,13.200000
2019-03-30T04:03:58.834Z,16.000000
2019-03-30T04:06:29.190Z,16.000000
2019-03-30T04:08:59.661Z,15.700000
2019-03-30T04:11:30.033Z,15.700000
2019-03-30T04:14:00.443Z,17.900000
2019-03-30T04:16:30.800Z,17.900000
2019-03-30T04:19:01.205Z,15.800000
2019-03-30T04:21:43.620Z,15.800000
2019-03-30T04:24:14.999Z,13.600000
2019-03-30T04:26:45.388Z,12.400000
2019-03-30T04:29:15.661Z,12.400000
2019-03-30T04:31:46.144Z,15.100000
2019-03-30T04:34:16.556Z,15.100000
2019-03-30T04:36:46.902Z,16.500000
2019-03-30T04:39:17.210Z,16.500000
2019-03-30T04:41:47.583Z,17.800000
2019-03-30T04:44:17.965Z,17.800000
2019-03-30T04:46:48.353Z,19.900000
2019-03-30T04:49:18.730Z,19.900000
2019-03-30T04:51:57.525Z,18.700000
2019-03-30T04:54:28.470Z,18.700000
2019-03-30T04:56:58.834Z,23.200000
2019-03-30T04:59:29.119Z,23.200000
2019-03-30T05:01:59.415Z,20.900000
2019-03-30T05:04:29.690Z,20.900000
2019-03-30T05:07:00.297Z,20.700000
2019-03-30T05:09:30.574Z,20.700000
2019-03-30T05:12:00.951Z,22.000000
2019-03-30T05:14:31.398Z,22.000000
2019-03-30T05:17:01.737Z,21.600000
2019-03-30T05:19:32.124Z,21.600000
2019-03-30T05:22:12.739Z,23.200000
2019-03-30T05:24:45.392Z,23.200000
2019-03-30T05:27:15.755Z,22.600000
2019-03-30T05:29:46.137Z,22.600000
2019-03-30T05:32:16.424Z,22.900000
2019-03-30T05:34:46.772Z,22.900000
2019-03-30T05:37:17.182Z,21.100000
2019-03-30T05:39:47.381Z,21.100000
2019-03-30T05:42:17.813Z,16.400000
2019-03-30T05:44:48.146Z,16.400000
2019-03-30T05:47:18.425Z,18.700000
2019-03-30T05:49:48.717Z,18.700000
2019-03-30T05:52:26.356Z,15.500000
2019-03-30T05:54:57.243Z,15.500000
2019-03-30T05:57:27.699Z,22.100000
2019-03-30T05:59:57.996Z,22.100000
2019-03-30T06:02:28.273Z,19.900000
2019-03-30T06:04:58.880Z,19.900000
2019-03-30T06:07:29.323Z,16.800000
2019-03-30T06:09:59.605Z,16.800000
2019-03-30T06:12:30.006Z,17.400000
2019-03-30T06:15:00.574Z,17.400000
2019-03-30T06:17:30.885Z,21.400000
2019-03-30T06:20:01.195Z,21.400000
2019-03-30T06:22:40.281Z,19.600000
2019-03-30T06:25:11.319Z,19.600000
2019-03-30T06:27:41.630Z,19.400000
2019-03-30T06:30:11.907Z,19.400000
2019-03-30T06:32:42.232Z,16.200000
2019-03-30T06:35:12.535Z,16.200000
2019-03-30T06:37:42.839Z,20.000000
2019-03-30T06:40:13.144Z,20.000000
2019-03-30T06:42:43.457Z,18.900000
2019-03-30T06:45:13.760Z,18.900000
2019-03-30T06:47:44.081Z,25.200000
2019-03-30T06:50:14.381Z,25.200000
2019-03-30T06:52:56.766Z,24.500000
2019-03-30T06:55:28.805Z,24.500000
2019-03-30T06:57:59.121Z,21.500000
2019-03-30T07:00:29.429Z,21.500000
2019-03-30T07:02:59.771Z,24.000000
2019-03-30T07:05:30.119Z,24.000000
2019-03-30T07:08:00.465Z,22.800000
2019-03-30T07:10:30.798Z,22.800000
2019-03-30T07:13:01.136Z,23.600000
2019-03-30T07:15:31.460Z,23.600000
2019-03-30T07:18:01.801Z,22.500000
2019-03-30T07:20:32.232Z,22.500000
2019-03-30T07:23:11.612Z,22.700000
2019-03-30T07:25:42.529Z,22.700000
2019-03-30T07:28:12.841Z,22.400000
2019-03-30T07:30:43.202Z,22.400000
2019-03-30T07:33:13.581Z,20.200000
2019-03-30T07:35:43.993Z,21.700000
2019-03-30T07:38:14.379Z,21.700000
2019-03-30T07:40:44.759Z,22.600000
2019-03-30T07:43:15.129Z,22.600000
2019-03-30T07:45:45.417Z,17.500000
2019-03-30T07:48:15.749Z,17.500000
2019-03-30T07:50:46.096Z,19.800000
2019-03-30T07:53:26.386Z,19.800000
2019-03-30T07:56:07.644Z,19.300000
2019-03-30T07:58:38.945Z,19.300000
2019-03-30T08:01:09.494Z,18.700000
2019-03-30T08:03:39.995Z,18.700000
2019-03-30T08:06:10.303Z,16.300000
2019-03-30T08:08:40.640Z,16.300000
2019-03-30T08:11:14.194Z,15.800000
2019-03-30T08:13:44.823Z,15.800000
2019-03-30T08:16:15.296Z,17.300000
2019-03-30T08:18:45.631Z,17.300000
2019-03-30T08:21:16.023Z,15.600000
2019-03-30T08:23:46.364Z,15.600000
2019-03-30T08:26:16.717Z,15.400000
2019-03-30T08:28:46.970Z,15.400000
2019-03-30T08:31:17.232Z,12.600000
2019-03-30T08:33:47.628Z,12.600000
2019-03-30T08:36:18.006Z,13.100000
2019-03-30T08:38:48.399Z,13.100000
2019-03-30T08:41:18.776Z,12.200000
2019-03-30T08:43:49.099Z,12.200000
2019-03-30T08:46:19.448Z,13.700000
2019-03-30T08:48:49.884Z,13.700000
2019-03-30T08:51:20.900Z,10.800000
2019-03-30T08:53:54.720Z,10.800000
2019-03-30T08:56:28.036Z,16.400000
2019-03-30T08:58:58.507Z,16.400000
2019-03-30T09:01:28.839Z,8.700000
2019-03-30T09:03:59.176Z,8.700000
2019-03-30T09:06:29.848Z,15.700000
2019-03-30T09:09:00.181Z,15.700000
2019-03-30T09:11:30.528Z,16.500000
2019-03-30T09:14:00.989Z,16.500000
2019-03-30T09:16:31.543Z,17.500000
2019-03-30T09:19:01.915Z,17.500000
2019-03-30T09:21:32.363Z,16.700000
2019-03-30T09:24:09.411Z,16.700000
2019-03-30T09:26:40.792Z,15.600000
2019-03-30T09:29:11.158Z,15.600000
2019-03-30T09:31:41.464Z,16.000000
2019-03-30T09:34:11.917Z,16.000000
2019-03-30T09:36:42.316Z,15.400000
2019-03-30T09:39:12.736Z,15.400000
2019-03-30T09:41:43.020Z,16.100000
2019-03-30T09:44:13.358Z,16.100000
2019-03-30T09:46:43.727Z,14.700000
2019-03-30T09:49:14.066Z,14.700000
2019-03-30T09:51:44.364Z,14.900000
2019-03-30T09:54:23.556Z,14.900000
2019-03-30T09:56:54.477Z,14.700000
2019-03-30T09:59:24.968Z,14.700000
2019-03-30T10:01:55.285Z,14.500000
2019-03-30T10:04:25.836Z,14.500000
2019-03-30T10:06:56.138Z,14.800000
2019-03-30T10:09:26.477Z,14.800000
2019-03-30T10:11:56.812Z,15.200000
2019-03-30T10:14:27.270Z,15.200000
2019-03-30T10:16:57.821Z,14.300000
2019-03-30T10:19:28.169Z,14.300000
2019-03-30T10:21:58.541Z,15.900000
2019-03-30T10:24:38.035Z,15.900000
2019-03-30T10:27:08.872Z,13.900000
2019-03-30T10:29:39.150Z,13.900000
2019-03-30T10:32:09.541Z,14.300000
2019-03-30T10:34:39.915Z,14.300000
2019-03-30T10:37:10.327Z,13.600000
2019-03-30T10:39:40.635Z,13.600000
2019-03-30T10:42:10.847Z,12.700000
2019-03-30T10:44:41.161Z,12.700000
2019-03-30T10:47:11.593Z,14.200000
2019-03-30T10:49:41.914Z,14.200000
2019-03-30T10:52:12.324Z,13.800000
2019-03-30T10:54:52.510Z,13.800000
2019-03-30T10:57:23.604Z,13.800000
2019-03-30T10:59:53.914Z,13.800000
2019-03-30T11:02:24.261Z,13.500000
2019-03-30T11:04:54.591Z,13.500000
2019-03-30T11:07:25.044Z,9.300000
2019-03-30T11:09:55.401Z,9.300000
2019-03-30T11:12:25.759Z,8.400000
2019-03-30T11:14:56.134Z,8.400000
2019-03-30T11:17:26.547Z,8.400000
2019-03-30T11:19:56.891Z,8.400000
2019-03-30T11:22:32.286Z,11.600000
2019-03-30T11:25:07.756Z,11.600000
2019-03-30T11:27:39.146Z,9.100000
2019-03-30T11:30:09.455Z,9.100000
2019-03-30T11:32:39.745Z,9.300000
2019-03-30T11:35:10.104Z,9.300000
2019-03-30T11:37:40.472Z,8.800000
2019-03-30T11:40:10.752Z,8.800000
2019-03-30T11:42:41.043Z,9.000000
2019-03-30T11:45:11.327Z,8.500000
2019-03-30T11:47:41.792Z,8.500000
2019-03-30T11:50:12.139Z,12.900000
2019-03-30T11:52:42.398Z,12.900000
2019-03-30T11:55:21.633Z,9.500000
2019-03-30T11:57:52.760Z,9.500000
2019-03-30T12:00:22.999Z,17.500000
2019-03-30T12:02:53.234Z,17.500000
2019-03-30T12:05:23.571Z,22.500000
2019-03-30T12:07:53.862Z,22.500000
2019-03-30T12:10:24.348Z,26.200000
2019-03-30T12:12:54.707Z,26.200000
2019-03-30T12:15:25.075Z,25.400000
2019-03-30T12:17:55.546Z,25.400000
2019-03-30T12:20:25.876Z,24.600000
2019-03-30T12:22:56.155Z,24.600000
2019-03-30T12:25:35.534Z,19.300000
2019-03-30T12:28:06.727Z,19.300000
2019-03-30T12:30:37.115Z,21.300000
2019-03-30T12:33:07.470Z,21.300000
2019-03-30T12:35:37.900Z,20.500000
2019-03-30T12:38:08.223Z,20.500000
2019-03-30T12:40:38.599Z,21.600000
2019-03-30T12:43:08.987Z,21.600000
2019-03-30T12:45:39.282Z,23.200000
2019-03-30T12:48:09.621Z,23.200000
2019-03-30T12:50:40.269Z,23.200000
2019-03-30T12:53:10.786Z,23.200000
2019-03-30T12:55:49.238Z,23.700000
2019-03-30T12:58:20.191Z,23.700000
2019-03-30T13:00:50.542Z,28.400000
2019-03-30T13:03:21.076Z,28.400000
2019-03-30T13:05:51.488Z,32.200000
2019-03-30T13:08:21.897Z,32.200000
2019-03-30T13:10:52.280Z,30.800000
2019-03-30T13:13:22.580Z,30.800000
2019-03-30T13:15:52.922Z,31.300000
2019-03-30T13:18:23.262Z,31.300000
2019-03-30T13:20:53.847Z,36.300000
2019-03-30T13:23:24.237Z,36.300000
2019-03-30T13:26:03.528Z,35.500000
2019-03-30T13:28:34.440Z,35.500000
2019-03-30T13:31:04.912Z,36.200000
2019-03-30T13:33:35.328Z,36.200000
2019-03-30T13:36:05.800Z,29.800000
2019-03-30T13:38:41.232Z,29.800000
2019-03-30T13:41:14.077Z,35.400000
2019-03-30T13:43:44.954Z,35.400000
2019-03-30T13:46:15.322Z,27.400000
2019-03-30T13:48:45.623Z,27.400000
2019-03-30T13:51:16.151Z,34.200000
2019-03-30T13:53:46.570Z,34.200000
2019-03-30T13:56:17.685Z,26.700000
2019-03-30T13:58:48.150Z,26.700000
2019-03-30T14:01:18.540Z,30.100000
2019-03-30T14:03:49.031Z,30.100000
2019-03-30T14:06:19.422Z,30.000000
2019-03-30T14:08:49.926Z,30.000000
2019-03-30T14:11:20.387Z,37.500000
2019-03-30T14:13:50.750Z,37.500000
2019-03-30T14:16:21.137Z,33.100000
2019-03-30T14:18:51.451Z,33.100000
2019-03-30T14:21:21.761Z,33.800000
2019-03-30T14:23:52.134Z,33.800000
2019-03-30T14:26:31.236Z,36.000000
2019-03-30T14:29:02.202Z,36.000000
2019-03-30T14:31:32.625Z,27.900000
2019-03-30T14:34:03.140Z,27.900000
2019-03-30T14:36:33.635Z,29.500000
2019-03-30T14:39:04.015Z,29.500000
2019-03-30T14:41:34.381Z,30.100000
2019-03-30T14:44:04.655Z,30.100000
2019-03-30T14:46:34.969Z,24.800000
2019-03-30T14:49:05.363Z,24.800000
2019-03-30T14:51:35.744Z,29.500000
2019-03-30T14:54:06.052Z,29.500000
2019-03-30T14:56:45.336Z,27.300000
2019-03-30T14:59:16.520Z,27.300000
2019-03-30T15:01:46.909Z,26.500000
2019-03-30T15:04:17.503Z,26.500000
2019-03-30T15:06:47.899Z,26.000000
2019-03-30T15:09:23.261Z,26.000000
2019-03-30T15:11:58.651Z,25.400000
2019-03-30T15:14:28.951Z,25.400000
2019-03-30T15:16:59.264Z,24.000000
2019-03-30T15:19:29.695Z,24.000000
2019-03-30T15:22:00.071Z,25.900000
2019-03-30T15:24:30.386Z,25.900000
2019-03-30T15:27:00.770Z,27.900000
2019-03-30T15:29:36.217Z,27.900000
2019-03-30T15:32:06.488Z,27.500000
2019-03-30T15:34:36.856Z,27.500000
2019-03-30T15:37:07.257Z,21.700000
2019-03-30T15:39:37.696Z,23.100000
2019-03-30T15:42:08.042Z,23.100000
2019-03-30T15:44:38.259Z,20.000000
2019-03-30T15:47:08.822Z,20.000000
2019-03-30T15:49:39.260Z,20.600000
2019-03-30T15:52:14.101Z,20.600000
2019-03-30T15:54:44.827Z,17.000000
2019-03-30T15:57:15.210Z,17.000000
2019-03-30T15:59:45.599Z,16.000000
2019-03-30T16:02:15.981Z,16.000000
2019-03-30T16:04:46.350Z,20.200000
2019-03-30T16:07:16.752Z,20.200000
2019-03-30T16:09:47.154Z,17.600000
2019-03-30T16:12:17.648Z,17.600000
2019-03-30T16:14:47.986Z,19.800000
2019-03-30T16:17:18.379Z,19.800000
2019-03-30T16:19:48.846Z,20.300000
2019-03-30T16:22:19.094Z,20.300000
2019-03-30T16:24:49.605Z,17.000000
2019-03-30T16:27:28.851Z,17.000000
2019-03-30T16:29:59.800Z,18.500000
2019-03-30T16:32:30.112Z,18.500000
2019-03-30T16:35:00.441Z,17.500000
2019-03-30T16:37:30.838Z,17.500000
2019-03-30T16:40:01.405Z,22.800000
2019-03-30T16:42:31.854Z,22.800000
2019-03-30T16:45:03.176Z,21.500000
2019-03-30T16:47:33.526Z,21.500000
2019-03-30T16:50:03.828Z,24.100000
2019-03-30T16:52:34.103Z,24.100000
2019-03-30T16:55:04.427Z,21.300000
2019-03-30T16:57:43.005Z,21.300000
2019-03-30T17:00:14.321Z,20.300000
2019-03-30T17:02:44.801Z,20.300000
2019-03-30T17:05:15.308Z,20.100000
2019-03-30T17:07:46.080Z,20.100000
2019-03-30T17:10:16.545Z,22.900000
2019-03-30T17:12:46.895Z,22.900000
2019-03-30T17:15:17.320Z,22.300000
2019-03-30T17:17:47.677Z,22.300000
2019-03-30T17:20:18.083Z,23.900000
2019-03-30T17:22:53.488Z,23.900000
2019-03-30T17:25:23.970Z,20.600000
2019-03-30T17:27:58.579Z,20.600000
2019-03-30T17:30:29.514Z,18.000000
2019-03-30T17:32:59.986Z,18.000000
2019-03-30T17:35:30.463Z,19.500000
2019-03-30T17:38:00.828Z,19.500000
2019-03-30T17:40:31.272Z,17.000000
2019-03-30T17:43:01.626Z,17.000000
2019-03-30T17:45:31.965Z,17.600000
2019-03-30T17:48:02.322Z,17.600000
2019-03-30T17:50:32.643Z,17.900000
2019-03-30T17:53:03.166Z,17.900000
2019-03-30T17:55:34.325Z,17.900000
2019-03-30T17:58:12.910Z,17.900000
2019-03-30T18:00:44.002Z,20.200000
2019-03-30T18:03:14.364Z,20.200000
2019-03-30T18:05:44.842Z,19.500000
2019-03-30T18:08:15.184Z,19.500000
2019-03-30T18:10:45.596Z,20.200000
2019-03-30T18:13:15.982Z,20.200000
2019-03-30T18:15:46.461Z,20.800000
2019-03-30T18:18:16.877Z,20.800000
2019-03-30T18:20:47.419Z,22.300000
2019-03-30T18:23:22.855Z,22.300000
2019-03-30T18:25:53.190Z,21.300000
2019-03-30T18:28:27.377Z,21.300000
2019-03-30T18:30:58.211Z,23.200000
2019-03-30T18:33:28.859Z,23.200000
2019-03-30T18:35:59.260Z,22.700000
2019-03-30T18:38:29.640Z,22.700000
2019-03-30T18:41:00.109Z,21.500000
2019-03-30T18:43:30.412Z,21.500000
2019-03-30T18:46:01.004Z,22.700000
2019-03-30T18:48:31.374Z,22.700000
2019-03-30T18:51:01.686Z,22.900000
2019-03-30T18:53:32.010Z,22.900000
2019-03-30T18:56:07.441Z,22.800000
2019-03-30T18:58:41.815Z,22.800000
2019-03-30T19:01:12.565Z,22.400000
2019-03-30T19:03:43.157Z,22.400000
2019-03-30T19:06:13.461Z,21.900000
2019-03-30T19:08:48.943Z,21.900000
2019-03-30T19:11:19.302Z,21.100000
2019-03-30T19:13:51.547Z,21.100000
2019-03-30T19:16:21.943Z,19.800000
2019-03-30T19:18:52.261Z,21.600000
2019-03-30T19:21:22.593Z,21.600000
2019-03-30T19:23:53.056Z,19.600000
2019-03-30T19:26:23.308Z,19.600000
2019-03-30T19:28:56.425Z,19.700000
2019-03-30T19:31:27.248Z,19.700000
2019-03-30T19:33:57.562Z,19.100000
2019-03-30T19:36:27.962Z,19.100000
2019-03-30T19:38:58.364Z,22.100000
2019-03-30T19:41:28.662Z,22.100000
2019-03-30T19:43:59.077Z,21.900000
2019-03-30T19:46:29.394Z,21.900000
2019-03-30T19:48:59.792Z,23.100000
2019-03-30T19:51:35.102Z,23.100000
2019-03-30T19:54:05.502Z,24.100000
2019-03-30T19:56:35.880Z,24.100000
2019-03-30T19:59:11.019Z,27.400000
2019-03-30T20:01:41.857Z,27.400000
2019-03-30T20:04:12.170Z,22.800000
2019-03-30T20:06:42.494Z,22.800000
2019-03-30T20:09:12.863Z,23.000000
2019-03-30T20:11:43.163Z,23.000000
2019-03-30T20:14:13.522Z,25.300000
2019-03-30T20:16:43.960Z,25.300000
2019-03-30T20:19:14.379Z,24.500000
2019-03-30T20:21:44.672Z,24.500000
2019-03-30T20:24:15.053Z,23.600000
2019-03-30T20:26:45.417Z,23.600000
2019-03-30T20:29:25.115Z,26.100000
2019-03-30T20:31:56.161Z,26.100000
2019-03-30T20:34:26.465Z,25.000000
2019-03-30T20:36:56.922Z,25.000000
2019-03-30T20:39:27.276Z,24.500000
2019-03-30T20:41:57.667Z,24.500000
2019-03-30T20:44:28.040Z,24.700000
2019-03-30T20:46:58.347Z,24.700000
2019-03-30T20:49:28.653Z,25.800000
2019-03-30T20:51:59.095Z,25.800000
2019-03-30T20:54:29.387Z,25.400000
2019-03-30T20:56:59.758Z,25.400000
2019-03-30T20:59:39.807Z,24.600000
2019-03-30T21:02:11.006Z,24.600000
2019-03-30T21:04:46.347Z,25.200000
2019-03-30T21:07:21.689Z,25.200000
2019-03-30T21:09:52.041Z,26.200000
2019-03-30T21:12:22.328Z,26.200000
2019-03-30T21:14:52.725Z,27.500000
2019-03-30T21:17:23.215Z,27.500000
2019-03-30T21:19:53.693Z,27.100000
2019-03-30T21:22:24.084Z,27.100000
2019-03-30T21:24:54.461Z,28.000000
2019-03-30T21:27:24.750Z,28.000000
2019-03-30T21:29:55.368Z,27.600000
2019-03-30T21:32:25.926Z,27.600000
2019-03-30T21:34:56.387Z,28.600000
2019-03-30T21:37:26.857Z,28.600000
2019-03-30T21:39:57.154Z,26.000000
2019-03-30T21:42:27.433Z,26.000000
2019-03-30T21:44:57.715Z,27.100000
2019-03-30T21:47:28.086Z,27.100000
2019-03-30T21:49:58.461Z,27.000000
2019-03-30T21:52:28.827Z,27.000000
2019-03-30T21:54:59.190Z,26.700000
2019-03-30T21:57:29.476Z,26.700000
2019-03-30T22:00:10.007Z,27.300000
2019-03-30T22:02:41.379Z,27.300000
2019-03-30T22:05:11.855Z,26.600000
2019-03-30T22:07:42.217Z,26.600000
2019-03-30T22:10:12.702Z,26.400000
2019-03-30T22:12:43.056Z,26.400000
2019-03-30T22:15:13.419Z,25.300000
2019-03-30T22:17:43.810Z,25.300000
2019-03-30T22:20:14.362Z,25.000000
2019-03-30T22:22:44.614Z,25.000000
2019-03-30T22:25:15.164Z,24.100000
2019-03-30T22:27:45.407Z,24.100000
2019-03-30T22:30:24.718Z,23.300000
2019-03-30T22:32:55.726Z,23.300000
2019-03-30T22:35:26.040Z,22.500000
2019-03-30T22:37:56.404Z,22.500000
2019-03-30T22:40:26.670Z,23.000000
2019-03-30T22:42:57.018Z,23.000000
2019-03-30T22:45:27.409Z,21.700000
2019-03-30T22:47:57.842Z,21.700000
2019-03-30T22:50:28.386Z,21.300000
2019-03-30T22:52:58.738Z,20.700000
2019-03-30T22:55:28.984Z,20.700000
2019-03-30T22:57:59.364Z,20.700000
2019-03-30T23:00:38.599Z,20.700000
2019-03-30T23:03:09.726Z,19.900000
2019-03-30T23:05:40.177Z,19.900000
2019-03-30T23:08:10.438Z,20.400000
2019-03-30T23:10:40.780Z,20.400000
2019-03-30T23:13:11.044Z,20.800000
2019-03-30T23:15:41.476Z,20.800000
2019-03-30T23:18:11.849Z,19.600000
2019-03-30T23:20:47.216Z,19.600000
2019-03-30T23:23:17.537Z,17.400000
2019-03-30T23:25:47.840Z,17.400000
2019-03-30T23:28:18.197Z,17.300000
2019-03-30T23:30:54.594Z,17.300000
2019-03-30T23:33:25.175Z,16.100000
2019-03-30T23:35:55.391Z,16.100000
2019-03-30T23:38:25.751Z,15.500000
2019-03-30T23:40:56.082Z,15.500000
2019-03-30T23:43:26.645Z,15.900000
2019-03-30T23:45:56.959Z,15.900000
2019-03-30T23:48:27.430Z,16.000000
2019-03-30T23:50:57.723Z,16.000000
2019-03-30T23:53:27.944Z,17.300000
2019-03-30T23:55:58.341Z,17.300000
2019-03-30T23:58:28.799Z,18.000000
